sensor_id;sensor_type;location;lat;lon;timestamp;P1;durP1;ratioP1;P2;durP2;ratioP2
21804;SDS011;11064;47.102;15.452;2023-06-10T00:02:12;22.00;;;15.70;;
21804;SDS011;11064;47.102;15.452;2023-06-10T00:04:38;19.17;;;14.73;;
21804;SDS011;11064;47.102;15.452;2023-06-10T00:07:04;20.55;;;15.20;;
21804;SDS011;11064;47.102;15.452;2023-06-10T00:09:39;21.67;;;15.90;;
21804;SDS011;11064;47.102;15.452;2023-06-10T00:12:06;26.13;;;16.67;;
21804;SDS011;11064;47.102;15.452;2023-06-10T00:14:36;21.90;;;15.55;;
21804;SDS011;11064;47.102;15.452;2023-06-10T00:17:03;29.63;;;16.52;;
21804;SDS011;11064;47.102;15.452;2023-06-10T00:19:29;20.67;;;15.70;;
21804;SDS011;11064;47.102;15.452;2023-06-10T00:21:56;24.52;;;15.35;;
21804;SDS011;11064;47.102;15.452;2023-06-10T00:24:22;19.05;;;15.10;;
21804;SDS011;11064;47.102;15.452;2023-06-10T00:26:48;27.95;;;16.40;;
21804;SDS011;11064;47.102;15.452;2023-06-10T00:29:14;22.20;;;15.88;;
21804;SDS011;11064;47.102;15.452;2023-06-10T00:31:40;20.70;;;14.50;;
21804;SDS011;11064;47.102;15.452;2023-06-10T00:34:06;21.88;;;15.88;;
21804;SDS011;11064;47.102;15.452;2023-06-10T00:36:33;21.50;;;15.93;;
21804;SDS011;11064;47.102;15.452;2023-06-10T00:39:01;21.85;;;15.80;;
21804;SDS011;11064;47.102;15.452;2023-06-10T00:41:27;19.55;;;15.23;;
21804;SDS011;11064;47.102;15.452;2023-06-10T00:43:53;22.58;;;15.82;;
21804;SDS011;11064;47.102;15.452;2023-06-10T00:46:19;25.77;;;15.27;;
21804;SDS011;11064;47.102;15.452;2023-06-10T00:48:49;29.15;;;16.52;;
21804;SDS011;11064;47.102;15.452;2023-06-10T00:51:16;119.88;;;21.60;;
21804;SDS011;11064;47.102;15.452;2023-06-10T00:53:43;23.55;;;16.20;;
21804;SDS011;11064;47.102;15.452;2023-06-10T00:56:09;21.95;;;15.80;;
21804;SDS011;11064;47.102;15.452;2023-06-10T00:58:35;24.55;;;16.80;;
21804;SDS011;11064;47.102;15.452;2023-06-10T01:01:02;24.90;;;16.60;;
21804;SDS011;11064;47.102;15.452;2023-06-10T01:03:29;26.35;;;16.55;;
21804;SDS011;11064;47.102;15.452;2023-06-10T01:09:06;25.25;;;16.15;;
21804;SDS011;11064;47.102;15.452;2023-06-10T01:11:45;32.00;;;16.23;;
21804;SDS011;11064;47.102;15.452;2023-06-10T01:14:23;21.50;;;15.60;;
21804;SDS011;11064;47.102;15.452;2023-06-10T01:16:50;19.83;;;15.18;;
21804;SDS011;11064;47.102;15.452;2023-06-10T01:19:18;22.98;;;15.27;;
21804;SDS011;11064;47.102;15.452;2023-06-10T01:21:44;25.50;;;17.13;;
21804;SDS011;11064;47.102;15.452;2023-06-10T01:24:14;22.27;;;15.95;;
21804;SDS011;11064;47.102;15.452;2023-06-10T01:26:43;30.00;;;16.43;;
21804;SDS011;11064;47.102;15.452;2023-06-10T01:29:19;38.15;;;17.23;;
21804;SDS011;11064;47.102;15.452;2023-06-10T01:32:08;23.20;;;15.07;;
21804;SDS011;11064;47.102;15.452;2023-06-10T01:34:42;24.95;;;15.57;;
21804;SDS011;11064;47.102;15.452;2023-06-10T01:37:09;24.48;;;16.25;;
21804;SDS011;11064;47.102;15.452;2023-06-10T01:39:38;24.30;;;16.10;;
21804;SDS011;11064;47.102;15.452;2023-06-10T01:42:05;21.08;;;15.32;;
21804;SDS011;11064;47.102;15.452;2023-06-10T01:44:31;22.48;;;16.42;;
21804;SDS011;11064;47.102;15.452;2023-06-10T01:46:57;25.25;;;16.65;;
21804;SDS011;11064;47.102;15.452;2023-06-10T01:49:23;26.45;;;16.02;;
21804;SDS011;11064;47.102;15.452;2023-06-10T01:51:51;25.40;;;15.88;;
21804;SDS011;11064;47.102;15.452;2023-06-10T01:54:17;23.95;;;17.20;;
21804;SDS011;11064;47.102;15.452;2023-06-10T01:56:43;23.13;;;16.42;;
21804;SDS011;11064;47.102;15.452;2023-06-10T01:59:08;22.60;;;15.07;;
21804;SDS011;11064;47.102;15.452;2023-06-10T02:01:34;24.63;;;16.75;;
21804;SDS011;11064;47.102;15.452;2023-06-10T02:04:00;23.67;;;16.00;;
21804;SDS011;11064;47.102;15.452;2023-06-10T02:06:26;20.98;;;15.82;;
21804;SDS011;11064;47.102;15.452;2023-06-10T02:08:52;27.00;;;17.15;;
21804;SDS011;11064;47.102;15.452;2023-06-10T02:11:18;21.90;;;15.95;;
21804;SDS011;11064;47.102;15.452;2023-06-10T02:13:44;26.63;;;16.85;;
21804;SDS011;11064;47.102;15.452;2023-06-10T02:16:10;22.40;;;15.77;;
21804;SDS011;11064;47.102;15.452;2023-06-10T02:18:37;20.92;;;15.15;;
21804;SDS011;11064;47.102;15.452;2023-06-10T02:21:06;20.02;;;14.68;;
21804;SDS011;11064;47.102;15.452;2023-06-10T02:23:32;22.35;;;16.10;;
21804;SDS011;11064;47.102;15.452;2023-06-10T02:25:58;26.88;;;16.33;;
21804;SDS011;11064;47.102;15.452;2023-06-10T02:28:23;30.02;;;17.33;;
21804;SDS011;11064;47.102;15.452;2023-06-10T02:30:50;31.73;;;17.52;;
21804;SDS011;11064;47.102;15.452;2023-06-10T02:33:17;23.77;;;16.67;;
21804;SDS011;11064;47.102;15.452;2023-06-10T02:35:43;29.13;;;17.05;;
21804;SDS011;11064;47.102;15.452;2023-06-10T02:38:09;24.95;;;16.48;;
21804;SDS011;11064;47.102;15.452;2023-06-10T02:40:35;22.38;;;15.73;;
21804;SDS011;11064;47.102;15.452;2023-06-10T02:43:00;24.73;;;15.68;;
21804;SDS011;11064;47.102;15.452;2023-06-10T02:45:26;23.63;;;15.88;;
21804;SDS011;11064;47.102;15.452;2023-06-10T02:47:52;18.92;;;14.73;;
21804;SDS011;11064;47.102;15.452;2023-06-10T02:50:18;24.17;;;15.77;;
21804;SDS011;11064;47.102;15.452;2023-06-10T02:52:44;18.90;;;13.75;;
21804;SDS011;11064;47.102;15.452;2023-06-10T02:55:10;19.23;;;14.23;;
21804;SDS011;11064;47.102;15.452;2023-06-10T02:57:35;21.65;;;15.38;;
21804;SDS011;11064;47.102;15.452;2023-06-10T03:00:01;21.85;;;15.52;;
21804;SDS011;11064;47.102;15.452;2023-06-10T03:02:29;24.27;;;15.90;;
21804;SDS011;11064;47.102;15.452;2023-06-10T03:04:57;23.63;;;16.35;;
21804;SDS011;11064;47.102;15.452;2023-06-10T03:07:23;21.90;;;16.08;;
21804;SDS011;11064;47.102;15.452;2023-06-10T03:09:49;24.27;;;16.67;;
21804;SDS011;11064;47.102;15.452;2023-06-10T03:12:15;23.95;;;16.00;;
21804;SDS011;11064;47.102;15.452;2023-06-10T03:14:41;25.30;;;16.88;;
21804;SDS011;11064;47.102;15.452;2023-06-10T03:17:07;24.52;;;16.85;;
21804;SDS011;11064;47.102;15.452;2023-06-10T03:19:35;27.65;;;17.48;;
21804;SDS011;11064;47.102;15.452;2023-06-10T03:22:13;30.05;;;18.15;;
21804;SDS011;11064;47.102;15.452;2023-06-10T03:24:40;29.92;;;18.73;;
21804;SDS011;11064;47.102;15.452;2023-06-10T03:27:06;25.90;;;17.85;;
21804;SDS011;11064;47.102;15.452;2023-06-10T03:29:33;26.65;;;18.33;;
21804;SDS011;11064;47.102;15.452;2023-06-10T03:31:59;28.25;;;17.75;;
21804;SDS011;11064;47.102;15.452;2023-06-10T03:34:25;29.98;;;17.60;;
21804;SDS011;11064;47.102;15.452;2023-06-10T03:36:51;28.88;;;17.85;;
21804;SDS011;11064;47.102;15.452;2023-06-10T03:39:17;25.77;;;17.45;;
21804;SDS011;11064;47.102;15.452;2023-06-10T03:41:43;28.02;;;17.75;;
21804;SDS011;11064;47.102;15.452;2023-06-10T03:44:09;29.42;;;17.70;;
21804;SDS011;11064;47.102;15.452;2023-06-10T03:46:35;32.55;;;17.95;;
21804;SDS011;11064;47.102;15.452;2023-06-10T03:49:00;27.67;;;18.05;;
21804;SDS011;11064;47.102;15.452;2023-06-10T03:51:28;27.35;;;18.48;;
21804;SDS011;11064;47.102;15.452;2023-06-10T03:53:54;28.63;;;18.42;;
21804;SDS011;11064;47.102;15.452;2023-06-10T03:56:20;27.33;;;17.80;;
21804;SDS011;11064;47.102;15.452;2023-06-10T03:58:46;26.38;;;17.70;;
21804;SDS011;11064;47.102;15.452;2023-06-10T04:01:12;25.50;;;17.90;;
21804;SDS011;11064;47.102;15.452;2023-06-10T04:03:43;25.25;;;17.70;;
21804;SDS011;11064;47.102;15.452;2023-06-10T04:06:09;23.17;;;17.05;;
21804;SDS011;11064;47.102;15.452;2023-06-10T04:08:35;22.85;;;16.70;;
21804;SDS011;11064;47.102;15.452;2023-06-10T04:11:01;20.55;;;17.02;;
21804;SDS011;11064;47.102;15.452;2023-06-10T04:13:27;22.05;;;16.83;;
21804;SDS011;11064;47.102;15.452;2023-06-10T04:15:53;29.45;;;18.10;;
21804;SDS011;11064;47.102;15.452;2023-06-10T04:18:22;25.42;;;18.42;;
21804;SDS011;11064;47.102;15.452;2023-06-10T04:20:48;25.20;;;17.42;;
21804;SDS011;11064;47.102;15.452;2023-06-10T04:23:13;25.27;;;17.92;;
21804;SDS011;11064;47.102;15.452;2023-06-10T04:25:39;24.95;;;17.65;;
21804;SDS011;11064;47.102;15.452;2023-06-10T04:28:05;23.20;;;17.33;;
21804;SDS011;11064;47.102;15.452;2023-06-10T04:30:31;26.92;;;18.27;;
21804;SDS011;11064;47.102;15.452;2023-06-10T04:32:57;23.73;;;17.20;;
21804;SDS011;11064;47.102;15.452;2023-06-10T04:35:23;27.92;;;18.70;;
21804;SDS011;11064;47.102;15.452;2023-06-10T04:37:51;25.17;;;18.10;;
21804;SDS011;11064;47.102;15.452;2023-06-10T04:40:17;25.75;;;18.77;;
21804;SDS011;11064;47.102;15.452;2023-06-10T04:42:43;26.58;;;17.55;;
21804;SDS011;11064;47.102;15.452;2023-06-10T04:45:09;24.55;;;17.50;;
21804;SDS011;11064;47.102;15.452;2023-06-10T05:03:07;17.35;;;14.55;;
21804;SDS011;11064;47.102;15.452;2023-06-10T05:05:33;18.80;;;14.68;;
21804;SDS011;11064;47.102;15.452;2023-06-10T05:07:59;19.52;;;12.85;;
21804;SDS011;11064;47.102;15.452;2023-06-10T05:10:25;18.75;;;11.15;;
21804;SDS011;11064;47.102;15.452;2023-06-10T05:12:52;14.93;;;10.40;;
21804;SDS011;11064;47.102;15.452;2023-06-10T05:15:18;12.65;;;11.35;;
21804;SDS011;11064;47.102;15.452;2023-06-10T05:17:43;12.43;;;10.88;;
21804;SDS011;11064;47.102;15.452;2023-06-10T05:20:09;13.95;;;11.18;;
21804;SDS011;11064;47.102;15.452;2023-06-10T05:22:35;13.77;;;10.38;;
21804;SDS011;11064;47.102;15.452;2023-06-10T05:25:01;13.70;;;10.70;;
21804;SDS011;11064;47.102;15.452;2023-06-10T05:27:28;12.93;;;10.98;;
21804;SDS011;11064;47.102;15.452;2023-06-10T05:29:53;14.73;;;11.07;;
21804;SDS011;11064;47.102;15.452;2023-06-10T05:32:19;11.77;;;10.52;;
21804;SDS011;11064;47.102;15.452;2023-06-10T05:34:45;10.95;;;9.35;;
21804;SDS011;11064;47.102;15.452;2023-06-10T05:37:12;10.40;;;9.10;;
21804;SDS011;11064;47.102;15.452;2023-06-10T05:39:38;11.90;;;9.55;;
21804;SDS011;11064;47.102;15.452;2023-06-10T05:42:06;9.88;;;8.75;;
21804;SDS011;11064;47.102;15.452;2023-06-10T05:44:32;13.25;;;9.18;;
21804;SDS011;11064;47.102;15.452;2023-06-10T05:46:58;9.18;;;8.27;;
21804;SDS011;11064;47.102;15.452;2023-06-10T05:49:24;9.27;;;7.85;;
21804;SDS011;11064;47.102;15.452;2023-06-10T05:51:50;8.57;;;7.72;;
21804;SDS011;11064;47.102;15.452;2023-06-10T05:54:17;9.55;;;7.60;;
21804;SDS011;11064;47.102;15.452;2023-06-10T05:56:43;9.60;;;7.63;;
21804;SDS011;11064;47.102;15.452;2023-06-10T05:59:09;8.45;;;7.55;;
21804;SDS011;11064;47.102;15.452;2023-06-10T06:01:35;9.38;;;7.07;;
21804;SDS011;11064;47.102;15.452;2023-06-10T06:04:01;8.18;;;6.95;;
21804;SDS011;11064;47.102;15.452;2023-06-10T06:06:27;8.40;;;7.30;;
21804;SDS011;11064;47.102;15.452;2023-06-10T06:08:53;10.80;;;6.28;;
21804;SDS011;11064;47.102;15.452;2023-06-10T06:11:19;7.68;;;6.05;;
21804;SDS011;11064;47.102;15.452;2023-06-10T06:13:45;7.68;;;6.40;;
21804;SDS011;11064;47.102;15.452;2023-06-10T06:16:13;8.00;;;6.93;;
21804;SDS011;11064;47.102;15.452;2023-06-10T06:18:39;10.82;;;7.22;;
21804;SDS011;11064;47.102;15.452;2023-06-10T06:21:04;8.60;;;7.65;;
21804;SDS011;11064;47.102;15.452;2023-06-10T06:23:30;9.30;;;7.28;;
21804;SDS011;11064;47.102;15.452;2023-06-10T06:25:56;7.85;;;7.03;;
21804;SDS011;11064;47.102;15.452;2023-06-10T06:28:22;8.98;;;7.13;;
21804;SDS011;11064;47.102;15.452;2023-06-10T06:30:48;8.38;;;7.57;;
21804;SDS011;11064;47.102;15.452;2023-06-10T06:33:13;9.13;;;7.60;;
21804;SDS011;11064;47.102;15.452;2023-06-10T06:35:39;8.43;;;7.57;;
21804;SDS011;11064;47.102;15.452;2023-06-10T06:38:05;8.80;;;7.70;;
21804;SDS011;11064;47.102;15.452;2023-06-10T06:40:31;8.65;;;7.75;;
21804;SDS011;11064;47.102;15.452;2023-06-10T06:42:57;10.13;;;8.00;;
21804;SDS011;11064;47.102;15.452;2023-06-10T06:45:23;9.55;;;8.55;;
21804;SDS011;11064;47.102;15.452;2023-06-10T06:47:49;10.80;;;9.50;;
21804;SDS011;11064;47.102;15.452;2023-06-10T06:50:14;10.68;;;8.63;;
21804;SDS011;11064;47.102;15.452;2023-06-10T06:52:42;9.90;;;8.70;;
21804;SDS011;11064;47.102;15.452;2023-06-10T06:55:08;8.80;;;7.93;;
21804;SDS011;11064;47.102;15.452;2023-06-10T06:57:35;9.48;;;8.20;;
21804;SDS011;11064;47.102;15.452;2023-06-10T07:00:02;8.45;;;7.55;;
21804;SDS011;11064;47.102;15.452;2023-06-10T07:02:28;8.88;;;7.53;;
21804;SDS011;11064;47.102;15.452;2023-06-10T07:04:54;9.32;;;7.18;;
21804;SDS011;11064;47.102;15.452;2023-06-10T07:07:21;9.93;;;8.50;;
21804;SDS011;11064;47.102;15.452;2023-06-10T07:09:47;8.90;;;7.50;;
21804;SDS011;11064;47.102;15.452;2023-06-10T07:12:13;9.38;;;8.20;;
21804;SDS011;11064;47.102;15.452;2023-06-10T07:14:39;9.43;;;8.10;;
21804;SDS011;11064;47.102;15.452;2023-06-10T07:17:05;9.70;;;8.25;;
21804;SDS011;11064;47.102;15.452;2023-06-10T07:19:30;7.82;;;7.07;;
21804;SDS011;11064;47.102;15.452;2023-06-10T07:21:56;7.82;;;7.07;;
21804;SDS011;11064;47.102;15.452;2023-06-10T07:24:22;8.52;;;6.70;;
21804;SDS011;11064;47.102;15.452;2023-06-10T07:26:48;7.20;;;6.50;;
21804;SDS011;11064;47.102;15.452;2023-06-10T07:29:14;8.15;;;7.03;;
21804;SDS011;11064;47.102;15.452;2023-06-10T07:31:40;7.45;;;6.22;;
21804;SDS011;11064;47.102;15.452;2023-06-10T07:34:06;6.80;;;6.00;;
21804;SDS011;11064;47.102;15.452;2023-06-10T07:36:32;7.35;;;5.95;;
21804;SDS011;11064;47.102;15.452;2023-06-10T07:38:58;6.00;;;5.40;;
21804;SDS011;11064;47.102;15.452;2023-06-10T07:41:24;6.75;;;5.57;;
21804;SDS011;11064;47.102;15.452;2023-06-10T07:43:51;7.75;;;5.32;;
21804;SDS011;11064;47.102;15.452;2023-06-10T07:46:22;6.55;;;5.35;;
21804;SDS011;11064;47.102;15.452;2023-06-10T07:48:49;7.45;;;5.22;;
21804;SDS011;11064;47.102;15.452;2023-06-10T07:51:16;6.75;;;4.85;;
21804;SDS011;11064;47.102;15.452;2023-06-10T07:53:42;6.93;;;5.38;;
21804;SDS011;11064;47.102;15.452;2023-06-10T07:56:08;5.07;;;4.47;;
21804;SDS011;11064;47.102;15.452;2023-06-10T07:58:33;4.47;;;4.07;;
21804;SDS011;11064;47.102;15.452;2023-06-10T08:00:59;5.38;;;4.68;;
21804;SDS011;11064;47.102;15.452;2023-06-10T08:03:25;5.10;;;4.20;;
21804;SDS011;11064;47.102;15.452;2023-06-10T08:05:51;5.78;;;3.90;;
21804;SDS011;11064;47.102;15.452;2023-06-10T08:08:16;4.70;;;4.20;;
21804;SDS011;11064;47.102;15.452;2023-06-10T08:10:42;4.65;;;4.15;;
21804;SDS011;11064;47.102;15.452;2023-06-10T08:13:08;4.82;;;4.32;;
21804;SDS011;11064;47.102;15.452;2023-06-10T08:15:34;4.93;;;4.43;;
21804;SDS011;11064;47.102;15.452;2023-06-10T08:18:00;5.10;;;4.35;;
21804;SDS011;11064;47.102;15.452;2023-06-10T08:20:26;6.93;;;5.15;;
21804;SDS011;11064;47.102;15.452;2023-06-10T08:22:51;8.50;;;5.22;;
21804;SDS011;11064;47.102;15.452;2023-06-10T08:25:17;6.10;;;5.25;;
21804;SDS011;11064;47.102;15.452;2023-06-10T08:27:43;6.75;;;5.10;;
21804;SDS011;11064;47.102;15.452;2023-06-10T08:30:09;5.30;;;4.80;;
21804;SDS011;11064;47.102;15.452;2023-06-10T08:32:36;5.97;;;4.40;;
21804;SDS011;11064;47.102;15.452;2023-06-10T08:35:02;5.28;;;4.78;;
21804;SDS011;11064;47.102;15.452;2023-06-10T08:37:29;4.90;;;4.50;;
21804;SDS011;11064;47.102;15.452;2023-06-10T08:39:54;5.35;;;4.80;;
21804;SDS011;11064;47.102;15.452;2023-06-10T08:45:04;5.45;;;4.43;;
21804;SDS011;11064;47.102;15.452;2023-06-10T08:47:32;5.57;;;5.07;;
21804;SDS011;11064;47.102;15.452;2023-06-10T08:50:02;6.22;;;5.15;;
21804;SDS011;11064;47.102;15.452;2023-06-10T08:52:29;6.35;;;5.45;;
21804;SDS011;11064;47.102;15.452;2023-06-10T08:55:03;6.50;;;5.10;;
21804;SDS011;11064;47.102;15.452;2023-06-10T08:57:33;6.80;;;5.47;;
21804;SDS011;11064;47.102;15.452;2023-06-10T09:00:00;6.50;;;5.53;;
21804;SDS011;11064;47.102;15.452;2023-06-10T09:02:28;7.75;;;5.57;;
21804;SDS011;11064;47.102;15.452;2023-06-10T09:04:55;6.05;;;5.25;;
21804;SDS011;11064;47.102;15.452;2023-06-10T09:07:22;6.35;;;5.25;;
21804;SDS011;11064;47.102;15.452;2023-06-10T09:09:48;6.22;;;5.53;;
21804;SDS011;11064;47.102;15.452;2023-06-10T09:12:14;5.82;;;5.18;;
21804;SDS011;11064;47.102;15.452;2023-06-10T09:14:44;5.65;;;5.03;;
21804;SDS011;11064;47.102;15.452;2023-06-10T09:17:10;6.53;;;5.75;;
21804;SDS011;11064;47.102;15.452;2023-06-10T09:19:36;6.18;;;5.18;;
21804;SDS011;11064;47.102;15.452;2023-06-10T09:22:03;6.13;;;5.28;;
21804;SDS011;11064;47.102;15.452;2023-06-10T09:24:29;6.25;;;5.18;;
21804;SDS011;11064;47.102;15.452;2023-06-10T09:27:03;5.80;;;5.30;;
21804;SDS011;11064;47.102;15.452;2023-06-10T09:29:31;6.57;;;5.90;;
21804;SDS011;11064;47.102;15.452;2023-06-10T09:32:10;5.15;;;4.65;;
21804;SDS011;11064;47.102;15.452;2023-06-10T09:34:36;6.00;;;5.30;;
21804;SDS011;11064;47.102;15.452;2023-06-10T09:37:02;7.47;;;6.50;;
21804;SDS011;11064;47.102;15.452;2023-06-10T09:39:28;8.70;;;6.10;;
21804;SDS011;11064;47.102;15.452;2023-06-10T09:41:53;5.88;;;5.10;;
21804;SDS011;11064;47.102;15.452;2023-06-10T09:44:20;8.38;;;5.95;;
21804;SDS011;11064;47.102;15.452;2023-06-10T09:46:47;7.43;;;6.05;;
21804;SDS011;11064;47.102;15.452;2023-06-10T09:49:18;6.53;;;5.93;;
21804;SDS011;11064;47.102;15.452;2023-06-10T09:51:54;7.13;;;6.43;;
21804;SDS011;11064;47.102;15.452;2023-06-10T09:54:20;6.60;;;5.85;;
21804;SDS011;11064;47.102;15.452;2023-06-10T09:56:48;7.88;;;6.35;;
21804;SDS011;11064;47.102;15.452;2023-06-10T09:59:15;6.18;;;5.28;;
21804;SDS011;11064;47.102;15.452;2023-06-10T10:01:41;7.45;;;6.43;;
21804;SDS011;11064;47.102;15.452;2023-06-10T10:04:07;6.78;;;5.70;;
21804;SDS011;11064;47.102;15.452;2023-06-10T10:06:33;6.80;;;6.10;;
21804;SDS011;11064;47.102;15.452;2023-06-10T10:09:00;6.25;;;5.68;;
21804;SDS011;11064;47.102;15.452;2023-06-10T10:11:28;7.70;;;6.20;;
21804;SDS011;11064;47.102;15.452;2023-06-10T10:13:57;6.88;;;6.18;;
21804;SDS011;11064;47.102;15.452;2023-06-10T10:16:30;6.93;;;5.80;;
21804;SDS011;11064;47.102;15.452;2023-06-10T10:19:18;7.15;;;6.18;;
21804;SDS011;11064;47.102;15.452;2023-06-10T10:21:53;6.72;;;6.13;;
21804;SDS011;11064;47.102;15.452;2023-06-10T10:24:23;6.65;;;5.97;;
21804;SDS011;11064;47.102;15.452;2023-06-10T10:26:57;6.45;;;5.85;;
21804;SDS011;11064;47.102;15.452;2023-06-10T10:29:30;8.75;;;6.10;;
21804;SDS011;11064;47.102;15.452;2023-06-10T10:32:01;8.13;;;6.28;;
21804;SDS011;11064;47.102;15.452;2023-06-10T10:37:24;7.00;;;6.18;;
21804;SDS011;11064;47.102;15.452;2023-06-10T10:39:51;7.35;;;6.10;;
21804;SDS011;11064;47.102;15.452;2023-06-10T10:42:17;7.60;;;6.40;;
21804;SDS011;11064;47.102;15.452;2023-06-10T10:44:43;9.35;;;6.00;;
21804;SDS011;11064;47.102;15.452;2023-06-10T10:47:09;7.15;;;6.00;;
21804;SDS011;11064;47.102;15.452;2023-06-10T10:49:37;6.55;;;5.82;;
21804;SDS011;11064;47.102;15.452;2023-06-10T10:52:04;6.20;;;5.70;;
21804;SDS011;11064;47.102;15.452;2023-06-10T10:54:36;6.68;;;6.05;;
21804;SDS011;11064;47.102;15.452;2023-06-10T10:57:11;7.18;;;6.47;;
21804;SDS011;11064;47.102;15.452;2023-06-10T10:59:45;10.20;;;7.75;;
21804;SDS011;11064;47.102;15.452;2023-06-10T11:02:18;7.75;;;6.95;;
21804;SDS011;11064;47.102;15.452;2023-06-10T11:04:57;7.05;;;6.35;;
21804;SDS011;11064;47.102;15.452;2023-06-10T11:07:24;6.60;;;6.00;;
21804;SDS011;11064;47.102;15.452;2023-06-10T11:09:57;7.43;;;6.28;;
21804;SDS011;11064;47.102;15.452;2023-06-10T11:15:11;6.43;;;5.82;;
21804;SDS011;11064;47.102;15.452;2023-06-10T11:18:05;6.50;;;5.90;;
21804;SDS011;11064;47.102;15.452;2023-06-10T11:20:43;6.57;;;5.97;;
21804;SDS011;11064;47.102;15.452;2023-06-10T11:28:41;6.80;;;5.30;;
21804;SDS011;11064;47.102;15.452;2023-06-10T11:31:38;6.10;;;5.50;;
21804;SDS011;11064;47.102;15.452;2023-06-10T11:34:08;6.18;;;5.57;;
21804;SDS011;11064;47.102;15.452;2023-06-10T11:36:38;5.80;;;5.20;;
21804;SDS011;11064;47.102;15.452;2023-06-10T11:39:10;6.22;;;5.30;;
21804;SDS011;11064;47.102;15.452;2023-06-10T11:41:37;5.85;;;5.28;;
21804;SDS011;11064;47.102;15.452;2023-06-10T11:44:04;5.25;;;4.85;;
21804;SDS011;11064;47.102;15.452;2023-06-10T11:46:34;5.60;;;5.00;;
21804;SDS011;11064;47.102;15.452;2023-06-10T11:49:01;6.57;;;5.15;;
21804;SDS011;11064;47.102;15.452;2023-06-10T11:51:29;6.03;;;4.88;;
21804;SDS011;11064;47.102;15.452;2023-06-10T11:54:00;5.78;;;4.95;;
21804;SDS011;11064;47.102;15.452;2023-06-10T11:56:26;5.63;;;5.13;;
21804;SDS011;11064;47.102;15.452;2023-06-10T12:01:25;5.20;;;4.70;;
21804;SDS011;11064;47.102;15.452;2023-06-10T12:04:04;5.93;;;5.28;;
21804;SDS011;11064;47.102;15.452;2023-06-10T12:06:38;5.05;;;4.65;;
21804;SDS011;11064;47.102;15.452;2023-06-10T12:09:57;5.53;;;4.93;;
21804;SDS011;11064;47.102;15.452;2023-06-10T12:11:59;5.63;;;4.82;;
21804;SDS011;11064;47.102;15.452;2023-06-10T12:20:02;6.25;;;5.20;;
21804;SDS011;11064;47.102;15.452;2023-06-10T12:22:39;5.25;;;4.80;;
21804;SDS011;11064;47.102;15.452;2023-06-10T12:25:06;7.22;;;5.43;;
21804;SDS011;11064;47.102;15.452;2023-06-10T12:27:33;6.40;;;5.28;;
21804;SDS011;11064;47.102;15.452;2023-06-10T12:30:00;5.40;;;4.90;;
21804;SDS011;11064;47.102;15.452;2023-06-10T12:32:40;6.18;;;4.75;;
21804;SDS011;11064;47.102;15.452;2023-06-10T12:35:08;7.65;;;5.70;;
21804;SDS011;11064;47.102;15.452;2023-06-10T12:37:57;8.43;;;6.53;;
21804;SDS011;11064;47.102;15.452;2023-06-10T12:40:32;7.60;;;6.57;;
21804;SDS011;11064;47.102;15.452;2023-06-10T12:43:00;7.43;;;6.57;;
21804;SDS011;11064;47.102;15.452;2023-06-10T12:45:34;9.02;;;7.13;;
21804;SDS011;11064;47.102;15.452;2023-06-10T12:50:31;7.43;;;6.30;;
21804;SDS011;11064;47.102;15.452;2023-06-10T12:52:58;8.85;;;6.93;;
21804;SDS011;11064;47.102;15.452;2023-06-10T12:55:24;7.55;;;6.75;;
21804;SDS011;11064;47.102;15.452;2023-06-10T12:57:50;6.70;;;6.10;;
21804;SDS011;11064;47.102;15.452;2023-06-10T13:00:17;6.50;;;5.90;;
21804;SDS011;11064;47.102;15.452;2023-06-10T13:02:43;8.32;;;6.40;;
21804;SDS011;11064;47.102;15.452;2023-06-10T13:05:09;5.85;;;5.25;;
21804;SDS011;11064;47.102;15.452;2023-06-10T13:07:35;6.07;;;5.47;;
21804;SDS011;11064;47.102;15.452;2023-06-10T13:10:01;4.63;;;4.22;;
21804;SDS011;11064;47.102;15.452;2023-06-10T13:12:27;4.57;;;4.18;;
21804;SDS011;11064;47.102;15.452;2023-06-10T13:14:54;4.95;;;4.55;;
21804;SDS011;11064;47.102;15.452;2023-06-10T13:17:20;5.47;;;4.60;;
21804;SDS011;11064;47.102;15.452;2023-06-10T13:19:46;5.88;;;5.28;;
21804;SDS011;11064;47.102;15.452;2023-06-10T13:22:14;5.13;;;4.63;;
21804;SDS011;11064;47.102;15.452;2023-06-10T13:24:39;5.47;;;4.97;;
21804;SDS011;11064;47.102;15.452;2023-06-10T13:27:06;5.30;;;4.80;;
21804;SDS011;11064;47.102;15.452;2023-06-10T13:29:32;5.65;;;4.95;;
21804;SDS011;11064;47.102;15.452;2023-06-10T13:31:58;5.50;;;4.97;;
21804;SDS011;11064;47.102;15.452;2023-06-10T13:34:24;5.40;;;4.88;;
21804;SDS011;11064;47.102;15.452;2023-06-10T13:36:50;7.65;;;4.90;;
21804;SDS011;11064;47.102;15.452;2023-06-10T13:39:16;5.43;;;4.70;;
21804;SDS011;11064;47.102;15.452;2023-06-10T13:41:42;6.75;;;5.40;;
21804;SDS011;11064;47.102;15.452;2023-06-10T13:44:08;6.72;;;6.03;;
21804;SDS011;11064;47.102;15.452;2023-06-10T13:46:34;6.22;;;5.30;;
21804;SDS011;11064;47.102;15.452;2023-06-10T13:49:00;7.20;;;5.55;;
21804;SDS011;11064;47.102;15.452;2023-06-10T13:51:26;5.80;;;5.20;;
21804;SDS011;11064;47.102;15.452;2023-06-10T13:53:52;5.88;;;5.28;;
21804;SDS011;11064;47.102;15.452;2023-06-10T13:56:18;6.60;;;6.00;;
21804;SDS011;11064;47.102;15.452;2023-06-10T13:58:44;6.90;;;5.70;;
21804;SDS011;11064;47.102;15.452;2023-06-10T14:01:10;6.80;;;6.10;;
21804;SDS011;11064;47.102;15.452;2023-06-10T14:03:36;7.13;;;6.25;;
21804;SDS011;11064;47.102;15.452;2023-06-10T14:06:02;9.00;;;6.82;;
21804;SDS011;11064;47.102;15.452;2023-06-10T14:08:28;8.35;;;6.78;;
21804;SDS011;11064;47.102;15.452;2023-06-10T14:10:55;8.60;;;7.18;;
21804;SDS011;11064;47.102;15.452;2023-06-10T14:13:21;7.93;;;7.13;;
21804;SDS011;11064;47.102;15.452;2023-06-10T14:15:46;10.30;;;7.32;;
21804;SDS011;11064;47.102;15.452;2023-06-10T14:18:12;9.52;;;7.40;;
21804;SDS011;11064;47.102;15.452;2023-06-10T14:20:38;8.00;;;7.20;;
21804;SDS011;11064;47.102;15.452;2023-06-10T14:23:04;9.70;;;7.28;;
21804;SDS011;11064;47.102;15.452;2023-06-10T14:25:30;8.00;;;7.20;;
21804;SDS011;11064;47.102;15.452;2023-06-10T14:27:55;8.63;;;7.50;;
21804;SDS011;11064;47.102;15.452;2023-06-10T14:30:22;8.50;;;7.60;;
21804;SDS011;11064;47.102;15.452;2023-06-10T14:32:48;8.88;;;7.35;;
21804;SDS011;11064;47.102;15.452;2023-06-10T14:35:14;8.13;;;7.32;;
21804;SDS011;11064;47.102;15.452;2023-06-10T14:37:40;7.72;;;6.90;;
21804;SDS011;11064;47.102;15.452;2023-06-10T14:40:06;11.35;;;7.00;;
21804;SDS011;11064;47.102;15.452;2023-06-10T14:42:32;7.80;;;6.88;;
21804;SDS011;11064;47.102;15.452;2023-06-10T14:44:58;8.10;;;6.75;;
21804;SDS011;11064;47.102;15.452;2023-06-10T14:47:24;7.53;;;6.30;;
21804;SDS011;11064;47.102;15.452;2023-06-10T14:49:51;7.35;;;6.65;;
21804;SDS011;11064;47.102;15.452;2023-06-10T14:52:16;8.18;;;6.47;;
21804;SDS011;11064;47.102;15.452;2023-06-10T14:54:42;9.13;;;6.38;;
21804;SDS011;11064;47.102;15.452;2023-06-10T14:57:08;8.00;;;6.32;;
21804;SDS011;11064;47.102;15.452;2023-06-10T14:59:35;9.55;;;6.15;;
21804;SDS011;11064;47.102;15.452;2023-06-10T15:02:01;6.90;;;6.30;;
21804;SDS011;11064;47.102;15.452;2023-06-10T15:04:27;8.18;;;6.80;;
21804;SDS011;11064;47.102;15.452;2023-06-10T15:06:53;8.00;;;6.95;;
21804;SDS011;11064;47.102;15.452;2023-06-10T15:09:19;7.10;;;6.38;;